Time;durP1;ratioP1;P1;durP2;ratioP2;P2;SDS_P1;SDS_P2;PMS_P1;PMS_P2;Temp;Humidity;BMP_temperature;BMP_pressure;BME280_temperature;BME280_humidity;BME280_pressure;Samples;Min_cycle;Max_cycle;Signal;HPM_P1;HPM_P2
2022/03/06 04:01:48;;;;;;;1.60;1.50;;;2.30;60.50;;;;;;5546932;23;20613;-69
2022/03/06 04:04:14;;;;;;;2.13;2.03;;;2.30;60.60;;;;;;4993370;28;20809;-70
2022/03/06 04:06:41;;;;;;;2.00;1.90;;;2.30;60.40;;;;;;4993325;28;20441;-69
2022/03/06 04:09:08;;;;;;;1.73;1.63;;;2.30;60.60;;;;;;4992889;28;20943;-69
2022/03/06 04:11:34;;;;;;;2.23;2.13;;;2.30;60.50;;;;;;4986280;28;20520;-70
2022/03/06 04:14:01;;;;;;;2.07;1.97;;;2.30;60.50;;;;;;4977146;28;20891;-69
2022/03/06 04:16:28;;;;;;;2.17;2.07;;;2.30;60.60;;;;;;5109573;23;20886;-76
2022/03/06 04:18:56;;;;;;;1.97;1.87;;;2.30;60.60;;;;;;4999617;28;20445;-76
2022/03/06 04:21:22;;;;;;;2.10;2.00;;;2.30;60.70;;;;;;4999429;28;20437;-74
2022/03/06 04:23:49;;;;;;;1.77;1.67;;;2.40;60.30;;;;;;4998313;28;20488;-74
2022/03/06 04:26:16;;;;;;;2.03;1.93;;;2.40;60.40;;;;;;4984573;28;20470;-74
2022/03/06 04:28:42;;;;;;;2.17;1.93;;;2.40;60.50;;;;;;4977876;28;20480;-74
2022/03/06 04:31:09;;;;;;;2.20;2.10;;;2.40;60.50;;;;;;4977664;28;20941;-74
2022/03/06 04:33:36;;;;;;;2.40;2.20;;;2.40;60.40;;;;;;4977483;28;20860;-74
2022/03/06 04:36:04;;;;;;;1.60;1.50;;;2.40;60.50;;;;;;4977471;28;20828;-73
2022/03/06 04:38:31;;;;;;;2.10;2.00;;;2.40;60.60;;;;;;4977946;28;20454;-74
2022/03/06 04:40:58;;;;;;;1.90;1.80;;;2.40;60.70;;;;;;4977759;28;20457;-73
2022/03/06 04:43:24;;;;;;;2.20;2.10;;;2.40;60.60;;;;;;4977278;28;20820;-74
2022/03/06 04:45:51;;;;;;;1.90;1.80;;;2.40;60.70;;;;;;4977623;28;20466;-73
2022/03/06 04:48:18;;;;;;;2.10;2.00;;;2.30;60.70;;;;;;4977578;28;20512;-74
2022/03/06 04:50:45;;;;;;;2.00;1.90;;;2.30;60.80;;;;;;4977443;28;20965;-74
2022/03/06 04:53:13;;;;;;;2.00;1.90;;;2.30;61.00;;;;;;4977322;28;20806;-74
2022/03/06 04:55:39;;;;;;;1.90;1.80;;;2.30;61.10;;;;;;4977638;28;20494;-73
2022/03/06 04:58:06;;;;;;;2.50;2.40;;;2.30;61.10;;;;;;4977628;28;20867;-74
2022/03/06 05:00:33;;;;;;;2.10;2.00;;;2.30;61.10;;;;;;4977463;28;20532;-74
2022/03/06 05:03:00;;;;;;;2.30;2.20;;;2.30;61.00;;;;;;4977555;28;20864;-74
2022/03/06 05:05:27;;;;;;;2.20;2.10;;;2.30;61.00;;;;;;4977449;28;20470;-74
2022/03/06 05:07:54;;;;;;;1.63;1.53;;;2.30;61.20;;;;;;4977135;28;20824;-74
2022/03/06 05:10:22;;;;;;;2.67;2.47;;;2.30;61.10;;;;;;4977396;28;20453;-74
2022/03/06 05:12:49;;;;;;;1.90;1.80;;;2.30;61.10;;;;;;4977278;28;20453;-73
2022/03/06 05:15:15;;;;;;;2.20;2.10;;;2.30;61.00;;;;;;4976942;28;20517;-74
2022/03/06 05:17:43;;;;;;;2.10;2.00;;;2.30;60.90;;;;;;4977471;28;20435;-74
2022/03/06 05:20:11;;;;;;;2.00;1.90;;;2.30;61.00;;;;;;4977242;28;20528;-74
2022/03/06 05:22:38;;;;;;;2.10;2.00;;;2.30;60.90;;;;;;4975541;28;21195;-74
2022/03/06 05:25:07;;;;;;;2.27;2.13;;;2.30;61.00;;;;;;4977055;28;20493;-74
2022/03/06 05:27:35;;;;;;;1.87;1.77;;;2.30;61.10;;;;;;4977066;28;20457;-74
2022/03/06 05:30:01;;;;;;;2.00;1.90;;;2.30;61.60;;;;;;4977329;28;20453;-74
2022/03/06 05:32:28;;;;;;;2.10;2.00;;;2.30;61.60;;;;;;4976927;28;20453;-74
2022/03/06 05:34:55;;;;;;;2.30;2.20;;;2.30;61.50;;;;;;4976730;28;20486;-74
2022/03/06 05:37:22;;;;;;;1.80;1.70;;;2.30;61.20;;;;;;4977538;28;20453;-74
2022/03/06 05:39:48;;;;;;;2.00;1.90;;;2.30;61.50;;;;;;4976815;28;20800;-74
2022/03/06 05:42:16;;;;;;;1.97;1.87;;;2.30;61.50;;;;;;4976872;28;20826;-74
2022/03/06 05:44:44;;;;;;;1.90;1.80;;;2.20;61.70;;;;;;4976417;28;20819;-74
2022/03/06 05:47:11;;;;;;;2.00;1.90;;;2.20;61.70;;;;;;4977004;28;20828;-74
2022/03/06 05:49:37;;;;;;;2.50;1.80;;;2.20;61.80;;;;;;4976824;28;20941;-74
2022/03/06 05:52:05;;;;;;;2.20;2.10;;;2.20;62.00;;;;;;4976924;28;20458;-74
2022/03/06 05:54:32;;;;;;;1.93;1.83;;;2.20;61.90;;;;;;4977849;28;20493;-74
2022/03/06 05:56:59;;;;;;;2.50;2.30;;;2.10;62.00;;;;;;4981709;28;21024;-74
2022/03/06 05:59:26;;;;;;;2.00;1.90;;;2.20;62.00;;;;;;4982129;28;20481;-74
2022/03/06 06:01:54;;;;;;;1.90;1.80;;;2.20;62.20;;;;;;4981262;28;20458;-74
2022/03/06 06:04:21;;;;;;;2.00;1.90;;;2.20;62.40;;;;;;4981091;28;20545;-74
2022/03/06 06:06:47;;;;;;;1.80;1.70;;;2.20;62.20;;;;;;4980628;28;20478;-74
2022/03/06 06:09:15;;;;;;;1.60;1.50;;;2.30;62.30;;;;;;4980309;28;20454;-74
2022/03/06 06:11:42;;;;;;;1.77;1.67;;;2.30;62.10;;;;;;4979866;28;20949;-75
2022/03/06 06:14:08;;;;;;;2.23;2.13;;;2.40;62.00;;;;;;4980408;28;20478;-74
2022/03/06 06:16:35;;;;;;;2.00;1.90;;;2.40;61.90;;;;;;4979862;28;20509;-74
2022/03/06 06:19:04;;;;;;;2.37;2.27;;;2.50;61.70;;;;;;4979786;28;20442;-74
2022/03/06 06:21:30;;;;;;;2.10;2.00;;;2.60;61.50;;;;;;4979551;28;20469;-74
2022/03/06 06:23:57;;;;;;;1.90;1.80;;;2.60;61.40;;;;;;4979799;28;20458;-75
2022/03/06 06:26:24;;;;;;;2.10;2.00;;;2.70;61.40;;;;;;4979948;28;20481;-75
2022/03/06 06:28:55;;;;;;;1.73;1.63;;;2.70;61.40;;;;;;4979778;28;20464;-75
2022/03/06 06:31:22;;;;;;;2.10;2.00;;;2.80;61.30;;;;;;4980185;28;20434;-75
2022/03/06 06:33:49;;;;;;;2.30;2.20;;;3.10;61.10;;;;;;4979415;28;20450;-75
2022/03/06 06:36:18;;;;;;;2.17;2.07;;;3.60;60.10;;;;;;4979051;28;20866;-75
2022/03/06 06:38:45;;;;;;;1.80;1.70;;;4.40;58.80;;;;;;4979458;28;20441;-75
2022/03/06 06:41:12;;;;;;;2.00;1.90;;;5.20;56.70;;;;;;4979560;28;20442;-75
2022/03/06 06:43:39;;;;;;;1.83;1.73;;;5.90;55.00;;;;;;4977162;28;20461;-75
2022/03/06 06:46:05;;;;;;;1.60;1.50;;;6.70;53.30;;;;;;4975945;28;20465;-75
2022/03/06 06:48:32;;;;;;;1.80;1.70;;;7.60;51.40;;;;;;4975744;28;20450;-75
2022/03/06 06:50:59;;;;;;;1.77;1.67;;;8.40;49.60;;;;;;4975350;28;20961;-75
2022/03/06 06:53:27;;;;;;;1.70;1.60;;;9.40;48.20;;;;;;4975776;28;20453;-75
2022/03/06 06:55:53;;;;;;;1.90;1.80;;;10.20;46.30;;;;;;4975597;28;20898;-75
2022/03/06 06:58:20;;;;;;;1.70;1.60;;;11.10;44.80;;;;;;4975585;28;20509;-75
2022/03/06 07:00:47;;;;;;;1.43;1.33;;;11.90;43.20;;;;;;4975871;28;20454;-75
2022/03/06 07:03:14;;;;;;;1.63;1.53;;;12.70;41.70;;;;;;4975935;28;20450;-76
2022/03/06 07:05:40;;;;;;;1.90;1.80;;;13.50;40.90;;;;;;4976030;28;20473;-75
2022/03/06 07:08:07;;;;;;;1.53;1.43;;;14.20;39.20;;;;;;4975789;28;20803;-76
2022/03/06 07:10:35;;;;;;;1.80;1.70;;;14.80;38.50;;;;;;4975604;28;20516;-76
2022/03/06 07:13:02;;;;;;;1.80;1.70;;;15.40;37.50;;;;;;4975432;28;20521;-76
2022/03/06 07:15:29;;;;;;;1.77;1.67;;;16.00;36.60;;;;;;4975181;28;20924;-76
2022/03/06 07:17:58;;;;;;;1.50;1.40;;;16.50;36.00;;;;;;4975781;28;20496;-76
2022/03/06 07:20:25;;;;;;;1.70;1.60;;;17.10;35.50;;;;;;4975505;28;20536;-75
2022/03/06 07:22:51;;;;;;;1.67;1.57;;;17.80;34.50;;;;;;4975997;28;20513;-76
2022/03/06 07:25:18;;;;;;;1.80;1.70;;;18.20;33.60;;;;;;4975632;28;20829;-76
2022/03/06 07:27:46;;;;;;;1.70;1.60;;;18.60;33.30;;;;;;4975381;28;20458;-76
2022/03/06 07:30:14;;;;;;;1.50;1.40;;;18.90;32.60;;;;;;4975451;28;20458;-76
2022/03/06 07:32:42;;;;;;;1.63;1.53;;;19.30;32.10;;;;;;4975228;28;20454;-76
2022/03/06 07:35:09;;;;;;;1.70;1.60;;;19.70;31.80;;;;;;4975439;28;20580;-76
2022/03/06 07:37:36;;;;;;;1.43;1.33;;;20.40;30.90;;;;;;4975783;28;20521;-76
2022/03/06 07:40:03;;;;;;;1.60;1.50;;;20.70;30.70;;;;;;4975688;28;20465;-75
2022/03/06 07:42:30;;;;;;;1.93;1.83;;;21.00;30.30;;;;;;4975145;28;20490;-76
2022/03/06 07:44:58;;;;;;;1.63;1.53;;;21.40;30.00;;;;;;4975421;28;20537;-71
2022/03/06 07:47:25;;;;;;;1.57;1.47;;;21.70;29.40;;;;;;4978265;28;20944;-72
2022/03/06 07:49:52;;;;;;;1.70;1.60;;;21.60;29.60;;;;;;4979677;28;20457;-80
2022/03/06 07:52:19;;;;;;;1.67;1.57;;;21.70;29.70;;;;;;4980016;28;20482;-76
2022/03/06 07:54:45;;;;;;;1.80;1.70;;;21.30;30.00;;;;;;4979751;28;20493;-77
2022/03/06 07:57:12;;;;;;;1.60;1.50;;;21.20;29.30;;;;;;4980085;28;20454;-77
2022/03/06 07:59:39;;;;;;;2.00;1.90;;;20.80;30.00;;;;;;4979664;28;20458;-77
2022/03/06 08:02:07;;;;;;;1.60;1.50;;;19.60;31.10;;;;;;4980009;28;20450;-76
2022/03/06 08:04:34;;;;;;;1.80;1.70;;;19.70;31.30;;;;;;4979608;28;20481;-76
2022/03/06 08:07:00;;;;;;;1.50;1.40;;;19.30;31.80;;;;;;4980004;28;20540;-79
2022/03/06 08:09:27;;;;;;;1.80;1.70;;;17.90;33.10;;;;;;4980149;28;20458;-74
2022/03/06 08:11:54;;;;;;;1.77;1.67;;;17.10;34.60;;;;;;4979363;28;20450;-77
2022/03/06 08:14:21;;;;;;;1.93;1.83;;;14.60;37.00;;;;;;4980533;28;20454;-77
2022/03/06 08:16:47;;;;;;;1.70;1.60;;;12.30;40.50;;;;;;4979928;28;20513;-77
2022/03/06 08:19:16;;;;;;;2.13;2.03;;;11.50;42.50;;;;;;4980439;28;20527;-77
2022/03/06 08:21:43;;;;;;;1.70;1.60;;;10.70;44.50;;;;;;4980924;28;20521;-77
2022/03/06 08:24:09;;;;;;;1.90;1.80;;;9.60;46.50;;;;;;4980740;28;20477;-77
2022/03/06 08:26:36;;;;;;;2.43;2.33;;;8.80;48.40;;;;;;4979953;28;20462;-78
2022/03/06 08:29:03;;;;;;;1.60;1.50;;;8.20;49.80;;;;;;4978375;28;20508;-76
2022/03/06 08:31:30;;;;;;;2.13;2.03;;;7.80;50.40;;;;;;4977744;28;20449;-76
2022/03/06 08:33:56;;;;;;;1.97;1.87;;;7.50;51.90;;;;;;4977819;28;20504;-76
2022/03/06 08:36:24;;;;;;;2.17;2.07;;;7.70;51.70;;;;;;4977483;28;20493;-76
2022/03/06 08:38:51;;;;;;;1.70;1.60;;;7.40;51.10;;;;;;4977865;28;20462;-76
2022/03/06 08:41:18;;;;;;;2.30;2.20;;;7.10;51.80;;;;;;4977656;28;20830;-76
2022/03/06 08:43:45;;;;;;;1.97;1.87;;;6.80;52.60;;;;;;4977732;28;20512;-76
2022/03/06 08:46:11;;;;;;;2.10;2.00;;;6.40;53.20;;;;;;4978047;28;20529;-76
2022/03/06 08:48:38;;;;;;;2.30;2.20;;;6.20;54.10;;;;;;4977534;28;20450;-76
2022/03/06 08:51:05;;;;;;;2.00;1.90;;;6.20;54.50;;;;;;4977472;28;20450;-76
2022/03/06 08:53:34;;;;;;;1.90;1.80;;;6.20;55.30;;;;;;4977312;28;20938;-76
2022/03/06 08:56:01;;;;;;;2.07;1.97;;;6.10;53.90;;;;;;4976929;28;20556;-75
2022/03/06 08:58:28;;;;;;;1.80;1.70;;;5.80;54.80;;;;;;4977351;28;20496;-76
2022/03/06 09:00:55;;;;;;;1.80;1.70;;;5.40;54.60;;;;;;4977055;28;20871;-75
2022/03/06 09:03:22;;;;;;;2.20;2.10;;;5.00;56.40;;;;;;4977349;28;20446;-75
2022/03/06 09:05:48;;;;;;;1.83;1.73;;;4.70;57.00;;;;;;4977097;28;20487;-75
2022/03/06 09:08:15;;;;;;;1.80;1.70;;;4.90;56.50;;;;;;4976773;28;20930;-76
2022/03/06 09:10:43;;;;;;;1.90;1.80;;;5.00;56.20;;;;;;4976965;28;20946;-75
2022/03/06 09:13:10;;;;;;;2.43;1.97;;;4.90;55.90;;;;;;4977186;28;20457;-75
2022/03/06 09:15:38;;;;;;;2.23;2.10;;;4.80;56.30;;;;;;4977345;28;20548;-75
2022/03/06 09:18:05;;;;;;;1.90;1.80;;;5.00;56.30;;;;;;4976851;28;20446;-75
2022/03/06 09:20:33;;;;;;;1.83;1.73;;;5.00;56.20;;;;;;4976785;28;20453;-75
2022/03/06 09:22:59;;;;;;;3.57;1.90;;;4.90;55.60;;;;;;4976439;28;20942;-75
2022/03/06 09:25:28;;;;;;;1.70;1.60;;;4.50;56.40;;;;;;4976314;28;20898;-75
2022/03/06 09:27:56;;;;;;;2.00;1.90;;;4.60;56.30;;;;;;4976632;28;20512;-75
2022/03/06 09:30:23;;;;;;;1.90;1.80;;;4.60;56.50;;;;;;4976798;28;20512;-76
2022/03/06 09:32:50;;;;;;;1.80;1.70;;;4.70;55.60;;;;;;4976671;28;20481;-75
2022/03/06 09:35:16;;;;;;;1.77;1.67;;;4.70;55.80;;;;;;4976061;28;20989;-75
2022/03/06 09:37:43;;;;;;;1.70;1.60;;;4.90;55.00;;;;;;4976666;28;20450;-76
2022/03/06 09:40:11;;;;;;;1.90;1.70;;;5.00;54.90;;;;;;4976651;28;20500;-76
2022/03/06 09:42:38;;;;;;;1.83;1.73;;;5.10;54.10;;;;;;4976118;28;20978;-76
2022/03/06 09:45:09;;;;;;;1.60;1.50;;;4.90;54.10;;;;;;4976931;28;20465;-75
2022/03/06 09:47:36;;;;;;;1.63;1.53;;;5.00;54.50;;;;;;4976488;28;20439;-76
2022/03/06 09:50:05;;;;;;;1.50;1.40;;;4.90;54.50;;;;;;4976211;28;20863;-75
2022/03/06 09:52:31;;;;;;;1.90;1.80;;;4.70;54.40;;;;;;4976428;28;20453;-75
2022/03/06 09:54:58;;;;;;;1.50;1.40;;;4.80;54.70;;;;;;4976237;28;20497;-76
2022/03/06 09:57:25;;;;;;;1.57;1.47;;;4.90;54.90;;;;;;4976462;28;20450;-75
2022/03/06 09:59:52;;;;;;;1.90;1.80;;;5.00;54.30;;;;;;4976483;28;20454;-75
2022/03/06 10:02:20;;;;;;;1.73;1.63;;;4.70;54.50;;;;;;4976206;28;20823;-76
2022/03/06 10:04:47;;;;;;;1.80;1.70;;;4.80;54.20;;;;;;4976162;28;20461;-75
2022/03/06 10:07:15;;;;;;;1.93;1.83;;;4.70;54.30;;;;;;4975647;28;20450;-76
2022/03/06 10:09:48;;;;;;;1.60;1.50;;;4.70;54.80;;;;;;4975641;28;20458;-75
2022/03/06 10:12:22;;;;;;;2.00;1.90;;;4.50;55.00;;;;;;4975995;28;20795;-75
2022/03/06 10:14:50;;;;;;;2.10;2.00;;;4.70;54.30;;;;;;4976907;28;20460;-75
2022/03/06 10:17:18;;;;;;;1.53;1.43;;;5.00;54.90;;;;;;5015364;23;20548;-69
2022/03/06 10:20:00;;;;;;;1.83;1.73;;;5.20;53.40;;;;;;4995127;28;20444;-70
2022/03/06 10:22:29;;;;;;;2.10;2.00;;;5.20;52.80;;;;;;4995180;28;20422;-70
2022/03/06 10:24:58;;;;;;;1.77;1.67;;;5.30;53.40;;;;;;4995044;28;20449;-70
2022/03/06 10:27:48;;;;;;;1.60;1.50;;;5.50;52.90;;;;;;4978278;28;20876;-70
2022/03/06 10:30:27;;;;;;;2.03;1.93;;;5.60;52.80;;;;;;4975641;28;20430;-70
2022/03/06 10:32:54;;;;;;;1.77;1.67;;;5.70;52.60;;;;;;4975232;28;20948;-70
2022/03/06 10:35:26;;;;;;;1.90;1.80;;;5.70;51.60;;;;;;4974986;28;20933;-71
2022/03/06 10:37:53;;;;;;;1.60;1.50;;;5.70;50.80;;;;;;4975421;28;20489;-70
2022/03/06 10:40:32;;;;;;;1.60;1.50;;;5.70;51.40;;;;;;4975384;28;20445;-70
2022/03/06 10:42:59;;;;;;;1.60;1.50;;;6.00;52.30;;;;;;4975420;28;20429;-70
2022/03/06 10:45:26;;;;;;;1.87;1.77;;;6.20;51.80;;;;;;4975256;28;20504;-71
2022/03/06 10:47:56;;;;;;;1.90;1.80;;;6.60;51.40;;;;;;4975237;28;20867;-70
2022/03/06 10:50:26;;;;;;;1.77;1.67;;;6.70;49.70;;;;;;4975195;28;20449;-70
2022/03/06 10:52:54;;;;;;;1.83;1.73;;;6.70;49.20;;;;;;4975229;28;20435;-70
2022/03/06 10:55:33;;;;;;;2.00;1.90;;;6.70;48.90;;;;;;4975001;28;20461;-71
2022/03/06 10:58:00;;;;;;;1.50;1.40;;;6.90;48.90;;;;;;4975179;28;20438;-71
2022/03/06 11:00:28;;;;;;;1.60;1.50;;;7.00;48.20;;;;;;4974816;28;20504;-71
2022/03/06 11:02:57;;;;;;;1.43;1.33;;;7.00;47.60;;;;;;4975106;28;20449;-70
2022/03/06 11:05:26;;;;;;;2.00;1.90;;;6.80;47.70;;;;;;4975428;28;20533;-71
2022/03/06 11:07:53;;;;;;;2.07;1.97;;;6.80;48.10;;;;;;4974936;28;20491;-71
2022/03/06 11:10:20;;;;;;;1.70;1.60;;;7.00;47.60;;;;;;4974934;28;20454;-71
2022/03/06 11:12:47;;;;;;;2.30;2.10;;;7.20;47.00;;;;;;4974918;28;20825;-70
2022/03/06 11:15:14;;;;;;;1.87;1.60;;;7.10;46.90;;;;;;4975053;28;20465;-70
2022/03/06 11:17:41;;;;;;;1.60;1.50;;;6.80;47.00;;;;;;4974514;28;21020;-71
2022/03/06 11:20:09;;;;;;;1.60;1.50;;;6.90;47.30;;;;;;4975423;28;20449;-71
2022/03/06 11:22:53;;;;;;;1.43;1.33;;;7.00;47.70;;;;;;4975339;28;20457;-69
2022/03/06 11:25:26;;;;;;;1.90;1.80;;;7.20;47.20;;;;;;4974574;28;20481;-70
2022/03/06 11:28:06;;;;;;;1.57;1.47;;;7.20;47.00;;;;;;4975142;28;20434;-71
2022/03/06 11:30:33;;;;;;;1.70;1.60;;;7.40;46.90;;;;;;4974356;28;20914;-69
2022/03/06 11:33:04;;;;;;;2.00;1.90;;;7.40;46.60;;;;;;4974652;28;20451;-70
2022/03/06 11:35:33;;;;;;;1.63;1.53;;;7.10;47.00;;;;;;4974507;28;20812;-71
2022/03/06 11:38:02;;;;;;;1.70;1.60;;;7.00;47.10;;;;;;4974603;28;20449;-69
2022/03/06 11:40:43;;;;;;;1.50;1.40;;;7.10;46.90;;;;;;4974535;28;20457;-71
2022/03/06 11:43:10;;;;;;;2.00;1.90;;;7.10;46.10;;;;;;4974559;28;20517;-71
2022/03/06 11:45:48;;;;;;;1.80;1.70;;;7.10;46.40;;;;;;4974180;28;20508;-71
2022/03/06 11:48:40;;;;;;;1.73;1.63;;;7.10;46.50;;;;;;4974561;28;20473;-70
2022/03/06 11:51:27;;;;;;;1.60;1.50;;;7.10;46.60;;;;;;4972938;28;20450;-71
2022/03/06 11:53:57;;;;;;;1.73;1.63;;;6.90;46.70;;;;;;4974440;28;20488;-70
2022/03/06 11:56:56;;;;;;;1.90;1.80;;;7.00;47.10;;;;;;4974000;28;20489;-71
2022/03/06 11:59:35;;;;;;;1.70;1.60;;;7.20;46.40;;;;;;4974345;28;20441;-70
2022/03/06 12:02:07;;;;;;;1.70;1.60;;;7.10;47.00;;;;;;4974397;28;20536;-70
2022/03/06 12:04:38;;;;;;;1.70;1.60;;;7.30;46.30;;;;;;4974423;28;20430;-71
2022/03/06 12:07:07;;;;;;;1.57;1.47;;;7.40;46.10;;;;;;4974550;28;20470;-70
2022/03/06 12:09:37;;;;;;;1.40;1.30;;;7.50;46.20;;;;;;4975821;28;20461;-70
2022/03/06 12:12:05;;;;;;;1.63;1.53;;;7.40;46.20;;;;;;4975073;28;20922;-70
2022/03/06 12:14:35;;;;;;;1.80;1.70;;;7.50;45.80;;;;;;4975632;28;20445;-70
2022/03/06 12:17:18;;;;;;;1.47;1.37;;;7.50;45.30;;;;;;4974874;28;20497;-70
2022/03/06 12:20:12;;;;;;;1.70;1.60;;;7.50;45.00;;;;;;4975452;28;20972;-71
2022/03/06 12:22:46;;;;;;;1.77;1.67;;;7.80;45.10;;;;;;4975787;28;20450;-70
2022/03/06 12:25:24;;;;;;;1.77;1.67;;;8.30;44.50;;;;;;4975576;28;20829;-70
2022/03/06 12:28:18;;;;;;;1.67;1.57;;;8.50;43.70;;;;;;4976250;28;20839;-70
2022/03/06 12:30:45;;;;;;;1.90;1.70;;;8.90;42.70;;;;;;4976403;28;20501;-71
2022/03/06 12:33:33;;;;;;;1.53;1.43;;;8.90;42.70;;;;;;4980204;28;20548;-71
2022/03/06 12:36:24;;;;;;;1.53;1.43;;;8.70;42.20;;;;;;4979709;28;20477;-70
2022/03/06 12:38:57;;;;;;;1.37;1.27;;;9.00;42.20;;;;;;4979870;28;20441;-71
2022/03/06 12:41:26;;;;;;;1.60;1.50;;;9.10;41.70;;;;;;4979094;28;20817;-71
2022/03/06 12:44:04;;;;;;;1.37;1.27;;;9.10;41.50;;;;;;4980054;28;20442;-71
2022/03/06 12:46:31;;;;;;;1.80;1.70;;;9.20;41.30;;;;;;4978940;28;20996;-71
2022/03/06 12:48:57;;;;;;;1.60;1.13;;;8.80;41.20;;;;;;4978396;28;20469;-71
2022/03/06 12:51:30;;;;;;;1.40;1.30;;;8.80;42.20;;;;;;4978772;28;20469;-71
2022/03/06 12:53:57;;;;;;;1.57;1.47;;;9.10;42.00;;;;;;4978399;28;20461;-71
2022/03/06 12:56:38;;;;;;;1.40;1.30;;;9.30;40.50;;;;;;4978445;28;20485;-71
2022/03/06 12:59:11;;;;;;;1.40;1.30;;;9.50;40.00;;;;;;4977250;28;20434;-71
2022/03/06 13:01:40;;;;;;;1.30;1.20;;;9.40;40.20;;;;;;4976868;28;20853;-70
2022/03/06 13:04:07;;;;;;;1.30;1.20;;;9.30;41.00;;;;;;4977084;28;20538;-71
2022/03/06 13:06:34;;;;;;;1.30;1.20;;;9.20;40.90;;;;;;4976983;28;20813;-72
2022/03/06 13:09:03;;;;;;;1.50;1.40;;;9.30;41.50;;;;;;4977140;28;20449;-71
2022/03/06 13:11:30;;;;;;;1.27;1.17;;;9.60;41.60;;;;;;4976730;28;20449;-71
2022/03/06 13:14:03;;;;;;;1.30;1.20;;;9.70;41.30;;;;;;4976888;28;20973;-72
2022/03/06 13:16:30;;;;;;;1.53;1.43;;;9.80;40.50;;;;;;4976865;28;20493;-71
2022/03/06 13:19:01;;;;;;;1.30;1.20;;;9.60;40.60;;;;;;4976887;28;20454;-71
2022/03/06 13:21:29;;;;;;;1.37;1.27;;;9.30;40.90;;;;;;4977050;28;20445;-71
2022/03/06 13:23:59;;;;;;;1.43;1.33;;;9.20;41.40;;;;;;4976898;28;20470;-71
2022/03/06 13:26:27;;;;;;;1.33;1.23;;;8.90;41.40;;;;;;4976217;28;20819;-71
2022/03/06 13:28:55;;;;;;;1.60;1.50;;;8.80;41.80;;;;;;4976680;28;20453;-71
2022/03/06 13:31:23;;;;;;;1.50;1.40;;;8.60;42.30;;;;;;4976389;28;20968;-71
2022/03/06 13:34:04;;;;;;;1.40;1.30;;;8.60;42.10;;;;;;4976671;28;20883;-70
2022/03/06 13:36:31;;;;;;;1.63;1.53;;;8.50;42.00;;;;;;4976387;28;20489;-71
2022/03/06 13:39:04;;;;;;;1.50;1.40;;;8.40;42.50;;;;;;4976521;28;20457;-71
2022/03/06 13:41:31;;;;;;;1.43;1.33;;;8.40;42.60;;;;;;4976814;28;20442;-71
2022/03/06 13:43:58;;;;;;;1.60;1.50;;;8.50;42.30;;;;;;4975444;28;20454;-70
2022/03/06 13:46:26;;;;;;;1.60;1.50;;;8.40;42.10;;;;;;4976347;28;20470;-71
2022/03/06 13:49:08;;;;;;;1.30;1.20;;;8.40;41.90;;;;;;4976419;28;20501;-70
2022/03/06 13:51:35;;;;;;;1.40;1.30;;;8.40;41.90;;;;;;4976349;28;20438;-71
2022/03/06 13:54:03;;;;;;;1.50;1.27;;;8.40;42.30;;;;;;4975954;28;21004;-70
2022/03/06 13:56:33;;;;;;;1.43;1.33;;;8.40;41.70;;;;;;4976127;28;20470;-71
2022/03/06 13:59:00;;;;;;;1.17;1.07;;;8.40;41.70;;;;;;4976271;28;20434;-71
2022/03/06 14:01:28;;;;;;;1.40;1.30;;;8.20;42.10;;;;;;4975876;28;21005;-71
2022/03/06 14:03:59;;;;;;;1.47;1.37;;;8.30;43.00;;;;;;4976054;28;20504;-69
2022/03/06 14:06:47;;;;;;;1.40;1.30;;;8.60;43.50;;;;;;4975907;28;20552;-71
2022/03/06 14:09:22;;;;;;;1.50;1.40;;;9.00;42.20;;;;;;4970266;28;20460;-71
2022/03/06 14:11:49;;;;;;;1.40;1.27;;;9.00;41.90;;;;;;4975908;28;20442;-71
2022/03/06 14:14:15;;;;;;;1.63;1.53;;;8.80;42.10;;;;;;4975757;28;20453;-71
2022/03/06 14:16:44;;;;;;;1.40;1.30;;;8.60;42.50;;;;;;4975373;28;20494;-71
2022/03/06 14:19:18;;;;;;;1.47;1.37;;;8.50;42.80;;;;;;4975822;28;20457;-69
2022/03/06 14:21:47;;;;;;;1.20;1.10;;;8.30;42.90;;;;;;4975418;28;20828;-71
2022/03/06 14:24:16;;;;;;;1.40;1.30;;;8.20;42.90;;;;;;4975960;28;20450;-71
2022/03/06 14:26:45;;;;;;;1.87;1.77;;;8.20;43.20;;;;;;4975321;28;20993;-71
2022/03/06 14:29:14;;;;;;;1.50;1.40;;;8.40;43.00;;;;;;4975272;28;20789;-71
2022/03/06 14:31:42;;;;;;;1.20;1.10;;;8.30;42.90;;;;;;4975585;28;20454;-71
2022/03/06 14:34:11;;;;;;;1.40;1.30;;;8.30;43.10;;;;;;4975420;28;20819;-71
2022/03/06 14:36:38;;;;;;;1.27;1.17;;;8.30;43.10;;;;;;4975238;28;20525;-71
2022/03/06 14:39:06;;;;;;;1.30;1.20;;;8.40;43.10;;;;;;4975320;28;20478;-71
2022/03/06 14:41:33;;;;;;;1.70;1.60;;;8.50;43.00;;;;;;4975381;28;20450;-70
2022/03/06 14:43:59;;;;;;;1.40;1.30;;;8.30;43.40;;;;;;4974983;28;20877;-71
2022/03/06 14:46:26;;;;;;;1.50;1.40;;;8.00;43.70;;;;;;4975211;28;20480;-71
2022/03/06 14:48:54;;;;;;;1.73;1.63;;;8.00;43.90;;;;;;4975221;28;20450;-71
2022/03/06 14:51:23;;;;;;;1.43;1.33;;;8.00;44.00;;;;;;4975230;28;20454;-71
2022/03/06 14:53:50;;;;;;;1.30;1.20;;;8.10;43.50;;;;;;4974862;28;20509;-70
2022/03/06 14:56:17;;;;;;;1.27;1.17;;;7.90;43.60;;;;;;4975096;28;20501;-71
2022/03/06 14:58:44;;;;;;;1.20;1.10;;;8.10;44.00;;;;;;4975117;28;20540;-71
2022/03/06 15:01:12;;;;;;;1.30;1.20;;;8.10;43.50;;;;;;4975106;28;20454;-70
2022/03/06 15:03:39;;;;;;;1.40;1.30;;;8.00;43.20;;;;;;4974970;28;20450;-71
2022/03/06 15:06:09;;;;;;;1.60;1.50;;;7.90;43.00;;;;;;4974932;28;20476;-71
2022/03/06 15:08:37;;;;;;;1.30;1.20;;;7.80;43.30;;;;;;4974664;28;20510;-70
2022/03/06 15:11:04;;;;;;;1.30;1.20;;;7.60;43.50;;;;;;4974791;28;20450;-70
2022/03/06 15:13:31;;;;;;;1.70;1.60;;;7.70;43.70;;;;;;4974789;28;20453;-70
2022/03/06 15:15:58;;;;;;;1.50;1.40;;;7.90;44.20;;;;;;4974800;28;20485;-71
2022/03/06 15:18:24;;;;;;;1.30;1.20;;;8.00;43.20;;;;;;4975465;28;20493;-69
2022/03/06 15:20:52;;;;;;;1.70;1.60;;;7.90;43.40;;;;;;4974940;28;20505;-71
2022/03/06 15:23:20;;;;;;;1.60;1.50;;;7.70;44.10;;;;;;4974807;28;20445;-71
2022/03/06 15:25:48;;;;;;;1.50;1.40;;;7.60;44.00;;;;;;4974750;28;20474;-71
2022/03/06 15:28:15;;;;;;;1.30;1.20;;;7.70;44.40;;;;;;4974729;28;20442;-72
2022/03/06 15:30:42;;;;;;;1.33;1.23;;;8.20;44.50;;;;;;4974818;28;20561;-71
2022/03/06 15:33:08;;;;;;;1.30;1.20;;;9.30;42.80;;;;;;4974600;28;20454;-71
2022/03/06 15:35:35;;;;;;;1.20;1.10;;;9.80;41.30;;;;;;4974492;28;20503;-70
2022/03/06 15:38:02;;;;;;;1.30;1.20;;;9.50;41.40;;;;;;4974235;28;20509;-70
2022/03/06 15:40:28;;;;;;;1.43;1.33;;;8.80;42.20;;;;;;4974647;28;20452;-70
2022/03/06 15:42:56;;;;;;;1.33;1.23;;;8.20;43.60;;;;;;4974604;28;20508;-70
2022/03/06 15:45:23;;;;;;;1.40;1.30;;;7.70;44.50;;;;;;4974441;28;20501;-71
2022/03/06 15:47:50;;;;;;;1.30;1.20;;;7.60;45.10;;;;;;4974402;28;20509;-70
2022/03/06 15:50:17;;;;;;;1.43;1.33;;;7.40;45.40;;;;;;4974179;28;20964;-70
2022/03/06 15:52:44;;;;;;;1.20;1.10;;;7.10;45.80;;;;;;4974369;28;20930;-71
2022/03/06 15:55:11;;;;;;;1.47;1.37;;;7.00;46.10;;;;;;4974388;28;20457;-70
2022/03/06 15:57:37;;;;;;;1.40;1.30;;;6.70;46.50;;;;;;4974206;28;20493;-71
2022/03/06 16:00:07;;;;;;;1.30;1.20;;;6.40;46.80;;;;;;4974359;28;20449;-70
2022/03/06 16:02:33;;;;;;;1.60;1.50;;;6.30;47.30;;;;;;4974437;28;20445;-70
2022/03/06 16:05:00;;;;;;;1.60;1.50;;;6.10;47.80;;;;;;4974903;28;20938;-71
2022/03/06 16:07:27;;;;;;;1.40;1.30;;;6.10;48.10;;;;;;4976874;28;20985;-70
2022/03/06 16:09:54;;;;;;;1.40;1.30;;;6.00;48.20;;;;;;4978183;28;20852;-70
2022/03/06 16:12:20;;;;;;;1.63;1.53;;;6.00;48.20;;;;;;4978142;28;20532;-71
2022/03/06 16:14:47;;;;;;;1.23;1.13;;;5.90;48.30;;;;;;4978826;28;20450;-70
2022/03/06 16:17:15;;;;;;;1.60;1.50;;;6.00;48.40;;;;;;4978887;28;20486;-69
2022/03/06 16:19:41;;;;;;;1.40;1.30;;;6.10;48.10;;;;;;4978106;28;20446;-69
2022/03/06 16:22:08;;;;;;;1.50;1.40;;;6.10;48.10;;;;;;4977953;28;20504;-70
2022/03/06 16:24:36;;;;;;;1.40;1.30;;;6.10;48.00;;;;;;4977928;28;20446;-70
2022/03/06 16:27:03;;;;;;;1.30;1.20;;;6.20;47.90;;;;;;4977802;28;20466;-71
2022/03/06 16:29:30;;;;;;;1.30;1.20;;;6.30;47.90;;;;;;4977806;28;20516;-71
2022/03/06 16:31:56;;;;;;;1.30;1.20;;;6.40;47.60;;;;;;4977779;28;20451;-70
2022/03/06 16:34:24;;;;;;;1.63;1.53;;;6.50;47.70;;;;;;4977693;28;20453;-71
2022/03/06 16:36:51;;;;;;;1.40;1.30;;;6.50;47.40;;;;;;4977606;28;20470;-70
2022/03/06 16:39:18;;;;;;;1.67;1.57;;;6.40;47.40;;;;;;4977659;28;20965;-70
2022/03/06 16:41:45;;;;;;;1.50;1.40;;;6.40;47.60;;;;;;4977572;28;20504;-70
2022/03/06 16:44:13;;;;;;;1.40;1.30;;;6.20;47.80;;;;;;4977516;28;20462;-70
2022/03/06 16:46:40;;;;;;;1.50;1.40;;;6.10;47.80;;;;;;4977694;28;20528;-71
2022/03/06 16:49:07;;;;;;;1.50;1.40;;;6.20;47.80;;;;;;4977186;28;20446;-70
2022/03/06 16:51:35;;;;;;;1.30;1.20;;;6.20;47.80;;;;;;4977382;28;20454;-70
2022/03/06 16:54:02;;;;;;;1.27;1.17;;;6.20;47.90;;;;;;4977382;28;20458;-70
2022/03/06 16:56:29;;;;;;;1.40;1.30;;;6.00;48.10;;;;;;4977298;28;20477;-70
2022/03/06 16:58:55;;;;;;;1.30;1.20;;;5.80;48.30;;;;;;4977219;28;20478;-69
2022/03/06 17:01:22;;;;;;;1.97;1.87;;;5.70;48.50;;;;;;4977417;28;20454;-70
2022/03/06 17:03:49;;;;;;;1.30;1.20;;;5.70;48.60;;;;;;4977134;28;20482;-70